createdAt,value
2022-12-31T00:01:12.265Z,8.02
2022-12-31T00:03:40.803Z,15.20
2022-12-31T00:06:31.361Z,6.90
2022-12-31T00:09:01.420Z,9.23
2022-12-31T00:11:31.236Z,8.48
2022-12-31T00:16:31.505Z,6.10
2022-12-31T00:19:01.270Z,4.95
2022-12-31T00:21:32.121Z,6.78
2022-12-31T00:24:00.100Z,4.30
2022-12-31T00:26:32.969Z,4.82
2022-12-31T00:29:02.080Z,6.85
2022-12-31T00:34:00.309Z,6.82
2022-12-31T00:36:32.476Z,6.75
2022-12-31T00:39:02.083Z,4.18
2022-12-31T00:41:30.169Z,4.05
2022-12-31T00:43:58.047Z,7.03
2022-12-31T00:46:26.873Z,3.63
2022-12-31T00:48:55.069Z,4.00
2022-12-31T00:51:27.678Z,3.58
2022-12-31T00:53:57.403Z,8.88
2022-12-31T00:56:29.395Z,8.82
2022-12-31T00:58:57.815Z,7.18
2022-12-31T01:01:30.033Z,6.65
2022-12-31T01:04:13.867Z,3.92
2022-12-31T01:06:43.438Z,5.25
2022-12-31T01:09:13.885Z,10.02
2022-12-31T01:11:42.273Z,5.97
2022-12-31T01:14:17.615Z,5.90
2022-12-31T01:16:52.208Z,5.03
2022-12-31T01:19:27.335Z,5.82
2022-12-31T01:21:56.527Z,3.13
2022-12-31T01:24:24.109Z,6.10
2022-12-31T01:26:52.231Z,5.85
2022-12-31T01:29:19.834Z,5.88
2022-12-31T01:31:47.735Z,5.70
2022-12-31T01:34:15.292Z,4.20
2022-12-31T01:36:43.100Z,8.82
2022-12-31T01:39:12.270Z,7.93
2022-12-31T01:44:13.050Z,6.03
2022-12-31T01:47:01.141Z,6.60
2022-12-31T01:49:51.492Z,3.83
2022-12-31T01:52:38.520Z,4.47
2022-12-31T01:55:31.975Z,9.15
2022-12-31T01:58:19.787Z,7.05
2022-12-31T02:00:48.249Z,4.30
2022-12-31T02:03:16.275Z,5.43
2022-12-31T02:05:58.465Z,3.80
2022-12-31T02:08:26.291Z,4.10
2022-12-31T02:10:53.842Z,11.35
2022-12-31T02:13:22.056Z,7.47
2022-12-31T02:16:12.569Z,11.20
2022-12-31T02:18:56.334Z,8.60
2022-12-31T02:21:41.487Z,5.38
2022-12-31T02:24:31.577Z,3.97
2022-12-31T02:27:10.059Z,7.13
2022-12-31T02:30:08.643Z,7.70
2022-12-31T02:32:56.326Z,5.20
2022-12-31T02:35:45.944Z,5.60
2022-12-31T02:38:26.935Z,7.07
2022-12-31T02:40:55.262Z,3.97
2022-12-31T02:43:23.969Z,6.95
2022-12-31T02:46:42.563Z,7.00
2022-12-31T02:50:03.251Z,8.23
2022-12-31T02:52:59.027Z,4.88
2022-12-31T02:55:42.031Z,3.53
2022-12-31T02:58:57.353Z,9.00
2022-12-31T03:01:51.669Z,38.50
2022-12-31T03:04:33.415Z,26.05
2022-12-31T03:07:11.492Z,14.40
2022-12-31T03:09:39.782Z,39.95
2022-12-31T03:12:29.474Z,48.53
2022-12-31T03:14:58.114Z,44.63
2022-12-31T03:17:26.443Z,51.30
2022-12-31T03:20:12.954Z,48.90
2022-12-31T03:22:43.210Z,46.28
2022-12-31T03:25:35.768Z,47.15
2022-12-31T03:28:15.638Z,49.30
2022-12-31T03:30:49.353Z,43.80
2022-12-31T03:33:17.525Z,42.35
2022-12-31T03:35:48.037Z,7.53
2022-12-31T03:38:16.839Z,6.35
2022-12-31T03:40:49.177Z,2.47
2022-12-31T03:43:16.979Z,2.38
2022-12-31T03:45:47.776Z,2.90
2022-12-31T03:48:15.266Z,1.70
2022-12-31T03:50:43.067Z,7.20
2022-12-31T03:53:11.400Z,5.55
2022-12-31T03:55:39.323Z,2.25
2022-12-31T03:58:07.035Z,1.55
2022-12-31T04:00:35.242Z,3.63
2022-12-31T04:03:02.821Z,3.97
2022-12-31T04:05:31.332Z,2.08
2022-12-31T04:07:58.832Z,1.63
2022-12-31T04:10:26.714Z,1.88
2022-12-31T04:12:54.255Z,9.48
2022-12-31T04:15:22.417Z,4.55
2022-12-31T04:17:49.924Z,6.35
2022-12-31T04:20:17.826Z,3.30
2022-12-31T04:22:45.347Z,6.05
2022-12-31T04:25:13.504Z,2.33
2022-12-31T04:27:43.777Z,2.13
2022-12-31T04:30:14.156Z,3.60
2022-12-31T04:32:42.205Z,5.32
2022-12-31T04:35:11.730Z,4.20
2022-12-31T04:37:39.806Z,2.20
2022-12-31T04:40:12.100Z,4.88
2022-12-31T04:42:41.385Z,3.17
2022-12-31T04:45:09.905Z,4.68
2022-12-31T04:47:37.692Z,3.80
2022-12-31T04:50:06.574Z,2.50
2022-12-31T04:52:38.737Z,7.10
2022-12-31T04:55:12.032Z,5.13
2022-12-31T04:57:41.473Z,2.37
2022-12-31T05:00:10.361Z,5.95
2022-12-31T05:02:38.294Z,23.67
2022-12-31T05:05:07.155Z,50.85
2022-12-31T05:07:35.187Z,55.05
2022-12-31T05:10:04.211Z,51.22
2022-12-31T05:12:31.846Z,52.30
2022-12-31T05:14:59.781Z,52.75
2022-12-31T05:17:27.271Z,53.70
2022-12-31T05:19:55.275Z,51.08
2022-12-31T05:22:31.942Z,50.30
2022-12-31T05:25:01.745Z,46.30
2022-12-31T05:27:33.318Z,40.75
2022-12-31T05:30:01.273Z,14.77
2022-12-31T05:32:29.284Z,23.15
2022-12-31T05:34:59.716Z,32.75
2022-12-31T05:37:31.351Z,30.15
2022-12-31T05:39:59.654Z,29.85
2022-12-31T05:42:27.848Z,7.25
2022-12-31T05:44:55.835Z,6.97
2022-12-31T05:47:25.108Z,4.43
2022-12-31T05:49:53.847Z,6.75
2022-12-31T05:52:22.647Z,4.68
2022-12-31T05:54:50.714Z,6.30
2022-12-31T05:57:18.767Z,6.38
2022-12-31T05:59:46.762Z,3.38
2022-12-31T06:02:14.318Z,3.63
2022-12-31T06:04:42.211Z,2.33
2022-12-31T06:07:09.803Z,5.03
2022-12-31T06:09:37.660Z,4.22
2022-12-31T06:12:06.288Z,2.38
2022-12-31T06:14:34.836Z,4.15
2022-12-31T06:17:03.447Z,4.13
2022-12-31T06:19:31.496Z,1.48
2022-12-31T06:21:59.081Z,3.05
2022-12-31T06:24:26.943Z,8.43
2022-12-31T06:26:54.591Z,2.45
2022-12-31T06:29:22.451Z,1.92
2022-12-31T06:31:49.912Z,4.20
2022-12-31T06:34:17.936Z,2.47
2022-12-31T06:36:45.545Z,3.60
2022-12-31T06:39:13.382Z,5.25
2022-12-31T06:41:41.070Z,6.30
2022-12-31T06:44:08.941Z,5.82
2022-12-31T06:46:36.523Z,5.82
2022-12-31T06:49:04.374Z,4.47
2022-12-31T06:51:31.909Z,3.35
2022-12-31T06:53:59.803Z,3.53
2022-12-31T06:56:34.404Z,21.60
2022-12-31T06:59:05.087Z,5.00
2022-12-31T07:02:01.143Z,13.20
2022-12-31T07:04:55.839Z,41.60
2022-12-31T07:08:06.383Z,49.83
2022-12-31T07:11:04.373Z,55.22
2022-12-31T07:14:22.034Z,58.90
2022-12-31T07:16:59.865Z,61.75
2022-12-31T07:20:01.108Z,16.17
2022-12-31T07:22:29.801Z,5.97
2022-12-31T07:24:57.946Z,10.55
2022-12-31T07:27:53.135Z,14.02
2022-12-31T07:30:24.555Z,3.42
2022-12-31T07:33:20.392Z,5.13
2022-12-31T07:36:29.079Z,9.35
2022-12-31T07:41:47.848Z,4.45
2022-12-31T07:44:24.873Z,8.48
2022-12-31T07:47:01.813Z,8.55
2022-12-31T07:49:33.484Z,5.35
2022-12-31T07:52:04.716Z,4.43
2022-12-31T07:54:32.783Z,8.23
2022-12-31T07:57:01.151Z,8.02
2022-12-31T08:00:05.651Z,4.78
2022-12-31T08:03:11.924Z,11.05
2022-12-31T08:08:29.515Z,44.88
2022-12-31T08:12:09.053Z,63.53
2022-12-31T08:14:54.712Z,57.30
2022-12-31T08:17:23.179Z,52.33
2022-12-31T08:19:51.389Z,51.22
2022-12-31T08:22:41.456Z,55.60
2022-12-31T08:42:48.443Z,69.75
2022-12-31T08:45:53.146Z,61.45
2022-12-31T08:48:47.906Z,59.65
2022-12-31T08:51:25.687Z,46.05
2022-12-31T08:53:55.397Z,44.97
2022-12-31T08:56:50.195Z,52.35
2022-12-31T08:59:34.124Z,48.88
2022-12-31T09:02:08.330Z,46.25
2022-12-31T09:05:05.801Z,54.72
2022-12-31T09:07:50.856Z,64.20
2022-12-31T09:11:08.891Z,49.55
2022-12-31T09:14:02.543Z,76.90
2022-12-31T09:17:17.988Z,62.67
2022-12-31T09:19:46.390Z,45.05
2022-12-31T09:22:14.408Z,54.95
2022-12-31T09:24:42.648Z,45.65
2022-12-31T09:27:46.285Z,50.60
2022-12-31T09:30:17.859Z,49.28
2022-12-31T09:33:17.591Z,45.88
2022-12-31T09:35:56.096Z,57.75
2022-12-31T09:38:37.421Z,43.70
2022-12-31T09:41:25.470Z,46.85
2022-12-31T09:44:20.676Z,44.85
2022-12-31T09:47:46.489Z,51.60
2022-12-31T09:50:29.105Z,42.72
2022-12-31T09:53:19.013Z,73.93
2022-12-31T09:56:14.485Z,80.18
2022-12-31T09:58:48.472Z,81.97
2022-12-31T10:01:45.299Z,75.60
2022-12-31T10:04:42.826Z,88.45
2022-12-31T10:07:15.765Z,93.82
2022-12-31T10:10:14.522Z,82.28
2022-12-31T10:13:03.315Z,96.45
2022-12-31T10:16:12.012Z,105.78
2022-12-31T10:18:53.852Z,99.70
2022-12-31T10:21:36.592Z,96.80
2022-12-31T10:24:34.131Z,92.78
2022-12-31T10:27:36.737Z,93.65
2022-12-31T10:30:24.211Z,96.35
2022-12-31T10:33:20.964Z,125.68
2022-12-31T10:36:28.788Z,109.47
2022-12-31T10:39:26.909Z,99.75
2022-12-31T10:42:25.326Z,86.47
2022-12-31T10:48:05.210Z,102.57
2022-12-31T10:51:26.282Z,84.80
2022-12-31T10:54:28.075Z,104.13
2022-12-31T10:57:20.619Z,94.75
2022-12-31T11:00:11.585Z,87.78
2022-12-31T11:02:58.159Z,91.22
2022-12-31T11:05:56.249Z,76.50
2022-12-31T11:09:02.261Z,69.60
2022-12-31T11:12:00.781Z,62.42
2022-12-31T11:14:39.877Z,66.97
2022-12-31T11:17:45.615Z,69.57
2022-12-31T11:20:23.862Z,60.13
2022-12-31T11:23:38.796Z,53.65
2022-12-31T11:26:32.174Z,57.17
2022-12-31T11:29:25.798Z,54.88
2022-12-31T11:32:13.091Z,65.57
2022-12-31T11:35:10.154Z,72.00
2022-12-31T11:37:47.553Z,65.07
2022-12-31T11:40:59.369Z,66.82
2022-12-31T11:43:50.125Z,70.38
2022-12-31T11:46:39.259Z,71.65
2022-12-31T11:49:34.307Z,75.60
2022-12-31T11:52:41.713Z,108.22
2022-12-31T11:55:38.255Z,82.15
2022-12-31T11:58:20.470Z,77.70
2022-12-31T12:01:21.252Z,76.70
2022-12-31T12:03:49.415Z,79.57
2022-12-31T12:06:24.950Z,69.40
2022-12-31T12:08:55.968Z,69.80
2022-12-31T12:11:29.934Z,68.30
2022-12-31T12:13:58.055Z,77.97
2022-12-31T12:16:28.380Z,79.60
2022-12-31T12:19:07.315Z,67.43
2022-12-31T12:24:17.182Z,72.50
2022-12-31T12:26:45.591Z,66.95
2022-12-31T12:29:32.249Z,67.38
2022-12-31T12:32:15.041Z,65.00
2022-12-31T12:34:49.155Z,66.38
2022-12-31T12:37:34.712Z,73.82
2022-12-31T12:40:19.051Z,81.80
2022-12-31T12:42:51.379Z,74.90
2022-12-31T12:45:30.255Z,74.82
2022-12-31T12:50:46.952Z,71.72
2022-12-31T12:53:42.706Z,82.57
2022-12-31T12:56:31.966Z,69.65
2022-12-31T12:59:37.854Z,69.70
2022-12-31T13:02:48.861Z,55.40
2022-12-31T13:05:46.650Z,57.13
2022-12-31T13:08:29.041Z,60.70
2022-12-31T13:11:32.828Z,60.03
2022-12-31T13:14:22.313Z,59.70
2022-12-31T13:17:31.380Z,62.35
2022-12-31T13:20:22.803Z,67.95
2022-12-31T13:23:27.588Z,73.35
2022-12-31T13:26:27.002Z,75.38
2022-12-31T13:28:56.746Z,73.03
2022-12-31T13:31:33.876Z,74.50
2022-12-31T13:34:13.299Z,59.22
2022-12-31T13:36:45.085Z,66.75
2022-12-31T13:39:32.333Z,36.60
2022-12-31T13:42:24.496Z,46.85
2022-12-31T13:45:00.913Z,48.00
2022-12-31T13:47:42.308Z,49.88
2022-12-31T13:50:36.480Z,13.00
2022-12-31T13:53:37.134Z,22.15
2022-12-31T13:56:21.983Z,19.67
2022-12-31T13:59:00.509Z,11.10
2022-12-31T14:01:34.454Z,6.93
2022-12-31T14:04:18.962Z,7.32
2022-12-31T14:07:32.229Z,15.65
2022-12-31T14:10:03.400Z,21.08
2022-12-31T14:13:10.285Z,14.68
2022-12-31T14:16:21.034Z,11.95
2022-12-31T14:19:08.922Z,20.13
2022-12-31T14:22:09.628Z,22.25
2022-12-31T14:24:51.151Z,26.75
2022-12-31T14:27:43.319Z,17.98
2022-12-31T14:30:19.512Z,30.08
2022-12-31T14:33:04.999Z,32.38
2022-12-31T14:36:10.370Z,27.15
2022-12-31T14:38:45.510Z,37.15
2022-12-31T14:42:12.490Z,35.35
2022-12-31T14:45:35.851Z,49.35
2022-12-31T14:48:26.104Z,48.45
2022-12-31T14:50:55.063Z,59.33
2022-12-31T14:53:26.915Z,30.25
2022-12-31T14:56:40.198Z,17.25
2022-12-31T15:00:21.271Z,20.55
2022-12-31T15:02:53.497Z,17.15
2022-12-31T15:05:25.703Z,17.10
2022-12-31T15:08:14.256Z,13.60
2022-12-31T15:11:26.788Z,23.60
2022-12-31T15:14:33.697Z,14.85
2022-12-31T15:17:43.872Z,60.47
2022-12-31T15:20:35.389Z,95.60
2022-12-31T15:23:11.891Z,90.68
2022-12-31T15:25:41.620Z,84.35
2022-12-31T15:28:35.699Z,78.68
2022-12-31T15:31:19.158Z,71.85
2022-12-31T15:34:34.895Z,81.88
2022-12-31T15:37:07.150Z,43.80
2022-12-31T15:39:34.945Z,27.85
2022-12-31T15:42:36.882Z,18.98
2022-12-31T15:45:00.620Z,22.75
2022-12-31T15:47:41.631Z,28.98
2022-12-31T15:50:22.595Z,33.50
2022-12-31T15:53:00.928Z,40.60
2022-12-31T15:55:50.969Z,25.43
2022-12-31T15:58:26.381Z,17.83
2022-12-31T16:01:24.830Z,16.65
2022-12-31T16:04:14.280Z,25.52
2022-12-31T16:06:48.931Z,30.92
2022-12-31T16:09:39.892Z,25.42
2022-12-31T16:12:30.798Z,19.17
2022-12-31T16:15:00.623Z,20.80
2022-12-31T16:17:31.165Z,15.60
2022-12-31T16:20:01.552Z,16.60
2022-12-31T16:22:38.437Z,12.13
2022-12-31T16:25:32.341Z,16.98
2022-12-31T16:28:03.739Z,30.00
2022-12-31T16:30:36.399Z,20.55
2022-12-31T16:33:12.569Z,16.80
2022-12-31T16:35:40.480Z,16.80
2022-12-31T16:38:19.590Z,9.63
2022-12-31T16:41:02.482Z,7.88
2022-12-31T16:43:43.248Z,10.93
2022-12-31T16:46:28.902Z,11.38
2022-12-31T16:49:03.053Z,12.88
2022-12-31T16:51:33.892Z,13.98
2022-12-31T16:54:02.766Z,10.02
2022-12-31T16:56:38.137Z,10.83
2022-12-31T16:59:40.175Z,26.50
2022-12-31T17:02:20.951Z,23.35
2022-12-31T17:04:55.899Z,15.98
2022-12-31T17:07:32.624Z,22.98
2022-12-31T17:10:09.458Z,14.77
2022-12-31T17:13:25.324Z,28.50
2022-12-31T17:15:43.446Z,29.70
2022-12-31T17:18:38.704Z,27.95
2022-12-31T17:21:10.168Z,21.05
2022-12-31T17:23:39.928Z,18.80
2022-12-31T17:26:14.971Z,19.15
2022-12-31T17:28:52.894Z,15.13
2022-12-31T17:31:43.236Z,15.32
2022-12-31T17:34:13.503Z,16.02
2022-12-31T17:37:15.889Z,14.13
2022-12-31T17:39:54.666Z,18.15
2022-12-31T17:42:34.487Z,15.35
2022-12-31T17:45:28.023Z,12.00
2022-12-31T17:48:00.519Z,12.35
2022-12-31T17:50:28.745Z,13.18
2022-12-31T17:53:11.677Z,20.52
2022-12-31T17:55:39.655Z,13.48
2022-12-31T17:58:08.139Z,17.90
2022-12-31T18:00:37.756Z,16.10
2022-12-31T18:03:05.706Z,13.63
2022-12-31T18:05:33.330Z,23.02
2022-12-31T18:08:01.142Z,43.22
2022-12-31T18:10:35.315Z,51.55
2022-12-31T18:13:07.065Z,63.35
2022-12-31T18:15:34.677Z,72.45
2022-12-31T18:18:12.270Z,73.57
2022-12-31T18:20:39.890Z,65.95
2022-12-31T18:23:17.780Z,61.38
2022-12-31T18:28:13.239Z,61.67
2022-12-31T18:30:41.043Z,58.00
2022-12-31T18:33:12.955Z,53.80
2022-12-31T18:36:07.828Z,62.45
2022-12-31T18:38:30.840Z,76.03
2022-12-31T18:43:27.556Z,53.85
2022-12-31T18:45:55.126Z,38.50
2022-12-31T18:48:23.011Z,27.83
2022-12-31T18:50:51.074Z,33.30
2022-12-31T18:53:22.805Z,44.25
2022-12-31T18:55:56.821Z,58.38
2022-12-31T18:58:24.895Z,58.15
2022-12-31T19:00:52.986Z,60.95
2022-12-31T19:03:24.299Z,56.97
2022-12-31T19:05:52.430Z,55.15
2022-12-31T19:08:22.756Z,51.90
2022-12-31T19:10:52.308Z,47.75
2022-12-31T19:13:20.910Z,40.38
2022-12-31T19:15:52.250Z,25.05
2022-12-31T19:18:20.357Z,23.25
2022-12-31T19:20:48.037Z,19.80
2022-12-31T19:23:20.615Z,21.15
2022-12-31T19:25:49.794Z,13.65
2022-12-31T19:30:46.603Z,12.15
2022-12-31T19:33:15.268Z,14.25
2022-12-31T19:35:43.676Z,16.00
2022-12-31T19:38:25.478Z,16.65
2022-12-31T19:40:54.130Z,21.33
2022-12-31T19:43:23.719Z,32.13
2022-12-31T19:48:32.074Z,27.08
2022-12-31T19:51:00.650Z,26.17
2022-12-31T19:53:28.855Z,25.08
2022-12-31T19:55:57.043Z,22.33
2022-12-31T19:58:27.209Z,20.38
2022-12-31T20:01:01.922Z,25.15
2022-12-31T20:03:32.764Z,21.42
2022-12-31T20:06:09.898Z,16.48
2022-12-31T20:08:39.963Z,16.30
2022-12-31T20:11:18.138Z,12.35
2022-12-31T20:13:48.368Z,14.80
2022-12-31T20:16:19.673Z,17.20
2022-12-31T20:18:48.453Z,14.98
2022-12-31T20:21:23.225Z,24.25
2022-12-31T20:23:53.534Z,23.35
2022-12-31T20:26:24.161Z,24.75
2022-12-31T20:28:53.177Z,17.52
2022-12-31T20:31:25.276Z,13.90
2022-12-31T20:33:54.789Z,13.90
2022-12-31T20:36:23.144Z,18.67
2022-12-31T20:38:51.329Z,25.00
2022-12-31T20:41:21.921Z,26.13
2022-12-31T20:43:50.910Z,24.17
2022-12-31T20:46:24.955Z,20.73
2022-12-31T20:48:55.598Z,22.15
2022-12-31T20:51:24.652Z,18.35
2022-12-31T20:56:32.183Z,28.38
2022-12-31T20:59:01.303Z,15.63
2022-12-31T21:01:47.805Z,12.40
2022-12-31T21:04:17.454Z,12.02
2022-12-31T21:06:45.409Z,12.82
2022-12-31T21:09:14.106Z,12.77
2022-12-31T21:12:00.423Z,11.95
2022-12-31T21:14:29.148Z,18.60
2022-12-31T21:16:56.691Z,12.27
2022-12-31T21:19:24.625Z,14.80
2022-12-31T21:21:52.299Z,27.63
2022-12-31T21:24:23.870Z,20.75
2022-12-31T21:26:55.229Z,28.02
2022-12-31T21:29:23.700Z,19.80
2022-12-31T21:31:51.357Z,17.95
2022-12-31T21:34:19.268Z,17.42
2022-12-31T21:36:46.883Z,25.83
2022-12-31T21:39:14.850Z,25.85
2022-12-31T21:41:51.406Z,23.17
2022-12-31T21:44:22.003Z,19.50
2022-12-31T21:47:33.261Z,18.33
2022-12-31T21:49:44.667Z,16.83
2022-12-31T21:52:34.035Z,12.15
2022-12-31T21:55:24.076Z,17.27
2022-12-31T21:58:24.743Z,12.65
2022-12-31T22:00:59.172Z,11.13
2022-12-31T22:03:29.557Z,34.05
2022-12-31T22:06:12.512Z,94.47
2022-12-31T22:08:45.411Z,108.32
2022-12-31T22:11:15.254Z,107.10
2022-12-31T22:16:13.245Z,114.68
2022-12-31T22:18:44.069Z,110.95
2022-12-31T22:21:22.217Z,126.70
2022-12-31T22:23:53.297Z,127.30
2022-12-31T22:26:25.866Z,101.95
2022-12-31T22:28:59.087Z,98.72
2022-12-31T22:31:30.278Z,99.75
2022-12-31T22:33:58.820Z,111.93
2022-12-31T22:36:26.942Z,93.18
2022-12-31T22:38:59.421Z,99.97
2022-12-31T22:41:28.585Z,98.47
2022-12-31T22:44:03.693Z,93.75
2022-12-31T22:46:33.542Z,88.90
2022-12-31T22:49:03.965Z,87.25
2022-12-31T22:51:56.390Z,89.60
2022-12-31T22:54:20.797Z,92.85
2022-12-31T22:56:48.975Z,96.70
2022-12-31T22:59:16.590Z,98.10
2022-12-31T23:01:44.651Z,113.55
2022-12-31T23:04:12.334Z,102.95
2022-12-31T23:06:44.238Z,107.95
2022-12-31T23:09:32.559Z,128.63
2022-12-31T23:12:01.504Z,120.57
2022-12-31T23:14:47.735Z,130.27
2022-12-31T23:17:38.818Z,129.18
2022-12-31T23:20:32.259Z,139.88
2022-12-31T23:23:12.849Z,138.95
2022-12-31T23:25:44.504Z,157.57
2022-12-31T23:28:20.138Z,158.90
2022-12-31T23:30:47.957Z,160.25
2022-12-31T23:33:22.841Z,166.23
2022-12-31T23:35:50.903Z,158.18
2022-12-31T23:38:19.180Z,162.65
2022-12-31T23:40:46.756Z,144.50
2022-12-31T23:43:21.876Z,148.63
2022-12-31T23:45:51.483Z,153.98
2022-12-31T23:48:19.586Z,141.15
2022-12-31T23:50:53.577Z,139.43
2022-12-31T23:53:25.098Z,130.02
2022-12-31T23:55:53.762Z,126.82
2022-12-31T23:58:22.456Z,127.00
